Time;durP1;ratioP1;P1;durP2;ratioP2;P2;SDS_P1;SDS_P2;PMS_P1;PMS_P2;Temp;Humidity;BMP_temperature;BMP_pressure;BME280_temperature;BME280_humidity;BME280_pressure;Samples;Min_cycle;Max_cycle;Signal;HPM_P1;HPM_P2
2021/06/14 00:00:55;;;;;;;;;;;19.10;99.90;;;;;;5097274;28;19943;-82
2021/06/14 00:03:21;;;;;;;;;;;19.00;99.90;;;;;;5097335;28;19920;-82
2021/06/14 00:05:48;;;;;;;;;;;19.00;99.90;;;;;;5097538;28;19924;-82
2021/06/14 00:08:16;;;;;;;;;;;19.00;99.90;;;;;;5097217;28;20370;-81
2021/06/14 00:10:42;;;;;;;;;;;19.00;99.90;;;;;;5097626;28;19931;-81
2021/06/14 00:13:09;;;;;;;;;;;19.00;99.90;;;;;;5097068;28;19934;-81
2021/06/14 00:15:36;;;;;;;;;;;19.00;99.90;;;;;;5097444;28;19920;-82
2021/06/14 00:18:05;;;;;;;;;;;19.00;99.90;;;;;;5097027;28;19920;-82
2021/06/14 00:20:32;;;;;;;;;;;19.00;99.90;;;;;;5097380;28;19920;-82
2021/06/14 00:22:59;;;;;;;;;;;19.00;99.90;;;;;;5096958;28;19924;-82
2021/06/14 00:25:26;;;;;;;;;;;19.10;99.90;;;;;;5096893;28;19924;-82
2021/06/14 00:27:53;;;;;;;;;;;19.10;99.90;;;;;;5096922;28;19927;-82
2021/06/14 00:30:22;;;;;;;;;;;19.10;99.90;;;;;;5096756;28;19919;-82
2021/06/14 00:32:50;;;;;;;;;;;19.10;99.90;;;;;;5097034;28;19924;-82
2021/06/14 00:35:18;;;;;;;;;;;19.10;99.90;;;;;;5097055;28;19931;-82
2021/06/14 00:37:45;;;;;;;;;;;19.00;99.90;;;;;;5096765;28;19954;-82
2021/06/14 00:40:13;;;;;;;;;;;19.00;99.90;;;;;;5096532;28;19926;-82
2021/06/14 00:42:39;;;;;;;;;;;19.00;99.90;;;;;;5096803;28;19938;-82
2021/06/14 00:45:07;;;;;;;;;;;18.90;99.90;;;;;;5096569;28;20266;-82
2021/06/14 00:47:34;;;;;;;;;;;18.90;99.90;;;;;;5096666;28;19920;-82
2021/06/14 00:50:01;;;;;;;;;;;18.90;99.90;;;;;;5096549;28;19985;-82
2021/06/14 00:52:29;;;;;;;;;;;18.80;99.90;;;;;;5096307;28;20257;-82
2021/06/14 00:54:56;;;;;;;;;;;18.80;99.90;;;;;;5096268;28;19932;-82
2021/06/14 00:57:22;;;;;;;;;;;18.80;99.90;;;;;;5096635;28;19920;-82
2021/06/14 00:59:50;;;;;;;;;;;18.80;99.90;;;;;;5096403;28;20264;-82
2021/06/14 01:02:16;;;;;;;;;;;18.80;99.90;;;;;;5095771;28;19931;-82
2021/06/14 01:04:43;;;;;;;;;;;18.80;99.90;;;;;;5096276;28;19919;-82
2021/06/14 01:07:10;;;;;;;;;;;18.70;99.90;;;;;;5096317;28;20240;-82
2021/06/14 01:09:38;;;;;;;;;;;18.70;99.90;;;;;;5096575;28;19920;-82
2021/06/14 01:12:07;;;;;;;;;;;18.70;99.90;;;;;;5096014;28;19920;-82
2021/06/14 01:14:35;;;;;;;;;;;18.70;99.90;;;;;;5096010;28;19985;-83
2021/06/14 01:17:03;;;;;;;;;;;18.60;99.90;;;;;;5095883;28;19919;-83
2021/06/14 01:19:41;;;;;;;;;;;18.60;99.90;;;;;;5096083;28;19935;-82
2021/06/14 01:22:16;;;;;;;;;;;18.50;99.90;;;;;;5095877;28;19920;-83
2021/06/14 01:24:51;;;;;;;;;;;18.50;99.90;;;;;;5095791;28;19920;-82
2021/06/14 01:27:23;;;;;;;;;;;18.50;99.90;;;;;;5095840;28;19920;-82
2021/06/14 01:29:50;;;;;;;;;;;18.50;99.90;;;;;;5095775;28;19936;-83
2021/06/14 01:32:17;;;;;;;;;;;18.50;99.90;;;;;;5095937;28;19920;-83
2021/06/14 01:34:44;;;;;;;;;;;18.50;99.90;;;;;;5095544;28;20348;-82
2021/06/14 01:37:10;;;;;;;;;;;18.50;99.90;;;;;;5095598;28;19920;-83
2021/06/14 01:39:38;;;;;;;;;;;18.40;99.90;;;;;;5095747;28;19920;-83
2021/06/14 01:42:05;;;;;;;;;;;18.40;99.90;;;;;;5095466;28;19920;-83
2021/06/14 01:44:34;;;;;;;;;;;18.40;99.90;;;;;;5095456;28;19920;-82
2021/06/14 01:47:00;;;;;;;;;;;18.40;99.90;;;;;;5095547;28;20358;-83
2021/06/14 01:49:27;;;;;;;;;;;18.40;99.90;;;;;;5095556;28;19920;-83
2021/06/14 01:51:54;;;;;;;;;;;18.40;99.90;;;;;;5095625;28;19924;-82
2021/06/14 01:54:21;;;;;;;;;;;18.50;99.90;;;;;;5095893;28;19920;-82
2021/06/14 01:56:49;;;;;;;;;;;18.50;99.90;;;;;;5095291;28;20336;-83
2021/06/14 01:59:16;;;;;;;;;;;18.50;99.90;;;;;;5095249;28;19920;-83
2021/06/14 02:01:44;;;;;;;;;;;18.50;99.90;;;;;;5095557;28;19920;-83
2021/06/14 02:04:11;;;;;;;;;;;18.50;99.90;;;;;;5095505;28;19920;-83
2021/06/14 02:06:40;;;;;;;;;;;18.50;99.90;;;;;;5095488;28;19920;-83
2021/06/14 02:09:07;;;;;;;;;;;18.50;99.90;;;;;;5095654;28;19920;-82
2021/06/14 02:11:34;;;;;;;;;;;18.50;99.90;;;;;;5095119;28;19919;-82
2021/06/14 02:14:01;;;;;;;;;;;18.40;99.90;;;;;;5101329;28;19920;-83
2021/06/14 02:16:28;;;;;;;;;;;18.30;99.90;;;;;;5101784;28;19920;-83
2021/06/14 02:18:56;;;;;;;;;;;18.30;99.90;;;;;;5101887;28;19919;-83
2021/06/14 02:21:23;;;;;;;;;;;18.30;99.90;;;;;;5102113;28;19920;-83
2021/06/14 02:23:50;;;;;;;;;;;18.30;99.90;;;;;;5101784;28;19923;-83
2021/06/14 02:26:16;;;;;;;;;;;18.30;99.90;;;;;;5101878;28;19919;-83
2021/06/14 02:28:43;;;;;;;;;;;18.30;99.90;;;;;;5101760;28;19920;-83
2021/06/14 02:31:10;;;;;;;;;;;18.30;99.90;;;;;;5101645;28;19924;-83
2021/06/14 02:33:37;;;;;;;;;;;18.30;99.90;;;;;;5102074;28;19920;-83
2021/06/14 02:36:06;;;;;;;;;;;18.30;99.90;;;;;;5101875;28;19939;-83
2021/06/14 02:38:33;;;;;;;;;;;18.30;99.90;;;;;;5102062;28;19930;-83
2021/06/14 02:40:59;;;;;;;;;;;18.30;99.90;;;;;;5101843;28;19934;-83
2021/06/14 02:43:26;;;;;;;;;;;18.30;99.90;;;;;;5101786;28;19920;-83
2021/06/14 02:45:53;;;;;;;;;;;18.30;99.90;;;;;;5101542;28;19920;-83
2021/06/14 02:48:20;;;;;;;;;;;18.30;99.90;;;;;;5101778;28;19934;-83
2021/06/14 02:50:47;;;;;;;;;;;18.30;99.90;;;;;;5101669;28;19920;-83
2021/06/14 02:53:15;;;;;;;;;;;18.20;99.90;;;;;;5101850;28;19919;-83
2021/06/14 02:55:45;;;;;;;;;;;18.20;99.90;;;;;;5101722;28;19931;-83
2021/06/14 02:58:11;;;;;;;;;;;18.20;99.90;;;;;;5101441;28;20401;-83
2021/06/14 03:00:38;;;;;;;;;;;18.20;99.90;;;;;;5101524;28;19920;-83
2021/06/14 03:03:05;;;;;;;;;;;18.20;99.90;;;;;;5101729;28;19920;-83
2021/06/14 03:05:32;;;;;;;;;;;18.20;99.90;;;;;;5101568;28;19920;-83
2021/06/14 03:08:00;;;;;;;;;;;18.20;99.90;;;;;;5101625;28;19920;-83
2021/06/14 03:10:29;;;;;;;3.97;1.83;;;18.10;99.90;;;;;;5100142;28;20840;-82
2021/06/14 03:12:57;;;;;;;2.38;1.50;;;18.10;99.90;;;;;;5100895;28;20460;-83
2021/06/14 03:15:24;;;;;;;3.88;1.45;;;18.10;99.90;;;;;;5101138;28;20048;-82
2021/06/14 03:17:51;;;;;;;4.68;2.20;;;18.00;99.90;;;;;;5100957;28;20361;-83
2021/06/14 03:20:20;;;;;;;3.97;2.30;;;18.00;99.90;;;;;;5100820;28;20452;-82
2021/06/14 03:22:47;;;;;;;4.68;1.65;;;17.90;99.90;;;;;;5101028;28;20078;-82
2021/06/14 03:25:15;;;;;;;;;;;17.90;99.90;;;;;;5097666;28;20063;-83
2021/06/14 03:27:43;;;;;;;;;;;17.90;99.90;;;;;;5098003;28;20291;-83
2021/06/14 03:30:10;;;;;;;;;;;17.90;99.90;;;;;;5098278;28;19946;-82
2021/06/14 03:32:39;;;;;;;;;;;17.90;99.90;;;;;;5098140;28;19920;-83
2021/06/14 03:35:06;;;;;;;;;;;17.90;99.90;;;;;;5098027;28;19928;-83
2021/06/14 03:37:33;;;;;;;;;;;17.90;99.90;;;;;;5097834;28;19920;-82
2021/06/14 03:40:00;;;;;;;;;;;17.90;99.90;;;;;;5098055;28;20332;-82
2021/06/14 03:42:30;;;;;;;;;;;17.80;99.90;;;;;;5097972;28;19931;-82
2021/06/14 03:44:58;;;;;;;;;;;17.80;99.90;;;;;;5098297;28;19919;-82
2021/06/14 03:47:25;;;;;;;;;;;17.80;99.90;;;;;;5097672;28;19923;-83
2021/06/14 03:49:52;;;;;;;;;;;17.70;99.90;;;;;;5097727;28;19920;-83
2021/06/14 03:52:19;;;;;;;;;;;17.70;99.90;;;;;;5097679;28;19985;-83
2021/06/14 03:54:45;;;;;;;;;;;17.70;99.90;;;;;;5097680;28;19931;-83
2021/06/14 03:57:12;;;;;;;;;;;17.60;99.90;;;;;;5097344;28;19920;-83
2021/06/14 03:59:39;;;;;;;;;;;17.60;99.90;;;;;;5097609;28;19931;-83
2021/06/14 04:02:07;;;;;;;;;;;17.60;99.90;;;;;;5097818;28;19930;-82
2021/06/14 04:04:43;;;;;;;;;;;17.60;99.90;;;;;;5097586;28;19920;-83
2021/06/14 04:07:10;;;;;;;;;;;17.60;99.90;;;;;;5097471;28;19924;-82
2021/06/14 04:09:37;;;;;;;;;;;17.60;99.90;;;;;;5097440;28;19920;-83
2021/06/14 04:12:04;;;;;;;;;;;17.60;99.90;;;;;;5097361;28;20333;-82
2021/06/14 04:14:31;;;;;;;;;;;17.60;99.90;;;;;;5097190;28;19924;-82
2021/06/14 04:16:57;;;;;;;;;;;17.60;99.90;;;;;;5097544;28;19931;-83
2021/06/14 04:19:26;;;;;;;;;;;17.60;99.90;;;;;;5097046;28;20336;-83
2021/06/14 04:21:53;;;;;;;;;;;17.50;99.90;;;;;;5097213;28;19931;-82
2021/06/14 04:24:19;;;;;;;;;;;17.50;99.90;;;;;;5097143;28;19920;-82
2021/06/14 04:26:46;;;;;;;;;;;17.40;99.90;;;;;;5097294;28;19938;-82
2021/06/14 04:29:13;;;;;;;;;;;17.50;99.90;;;;;;5096802;28;19920;-83
2021/06/14 04:31:40;;;;;;;;;;;17.50;99.90;;;;;;5097042;28;19924;-82
2021/06/14 04:34:07;;;;;;;;;;;17.50;99.90;;;;;;5097184;28;19920;-84
2021/06/14 04:36:35;;;;;;;;;;;17.50;99.90;;;;;;5096740;28;19920;-84
2021/06/14 04:39:02;;;;;;;;;;;17.50;99.90;;;;;;5096949;28;19924;-83
2021/06/14 04:41:28;;;;;;;;;;;17.50;99.90;;;;;;5096649;28;20343;-82
2021/06/14 04:43:55;;;;;;;;;;;17.50;99.90;;;;;;5096546;28;19931;-82
2021/06/14 04:46:22;;;;;;;;;;;17.50;99.90;;;;;;5096655;28;19924;-82
2021/06/14 04:48:49;;;;;;;;;;;17.50;99.90;;;;;;5096694;28;19920;-82
2021/06/14 04:51:16;;;;;;;;;;;17.50;99.90;;;;;;5096641;28;20332;-82
2021/06/14 04:53:45;;;;;;;;;;;17.50;99.90;;;;;;5096623;28;19920;-82
2021/06/14 04:56:11;;;;;;;;;;;17.50;99.90;;;;;;5096324;28;19924;-78
2021/06/14 04:58:38;;;;;;;;;;;17.50;99.90;;;;;;5096385;28;19924;-77
2021/06/14 05:01:05;;;;;;;;;;;17.50;99.90;;;;;;5096534;28;19938;-77
2021/06/14 05:03:32;;;;;;;;;;;17.50;99.90;;;;;;5096354;28;19924;-77
2021/06/14 05:05:59;;;;;;;;;;;17.50;99.90;;;;;;5096302;28;19931;-78
2021/06/14 05:08:25;;;;;;;;;;;17.50;99.90;;;;;;5096279;28;20234;-77
2021/06/14 05:10:54;;;;;;;;;;;17.50;99.90;;;;;;5096370;28;19920;-77
2021/06/14 05:13:20;;;;;;;;;;;17.50;99.90;;;;;;5096302;28;20029;-78
2021/06/14 05:15:47;;;;;;;;;;;17.60;99.90;;;;;;5096285;28;19928;-78
2021/06/14 05:18:14;;;;;;;;;;;17.60;99.90;;;;;;5096077;28;19920;-78
2021/06/14 05:20:41;;;;;;;;;;;17.60;99.90;;;;;;5095826;28;19947;-78
2021/06/14 05:23:08;;;;;;;;;;;17.70;99.90;;;;;;5095800;28;19920;-77
2021/06/14 05:25:35;;;;;;;;;;;17.70;99.90;;;;;;5095957;28;19920;-77
2021/06/14 05:28:03;;;;;;;;;;;17.80;99.90;;;;;;5095904;28;19924;-78
2021/06/14 05:30:31;;;;;;;;;;;17.80;99.90;;;;;;5095820;28;19970;-78
2021/06/14 05:32:58;;;;;;;;;;;17.80;99.90;;;;;;5095705;28;19927;-78
2021/06/14 05:35:25;;;;;;;;;;;17.90;99.90;;;;;;5095933;28;19950;-78
2021/06/14 05:37:51;;;;;;;;;;;17.80;99.90;;;;;;5095820;28;20378;-77
2021/06/14 05:40:18;;;;;;;;;;;17.80;99.90;;;;;;5095826;28;19919;-78
2021/06/14 05:42:46;;;;;;;;;;;17.80;99.90;;;;;;5095787;28;19926;-78
2021/06/14 05:45:15;;;;;;;;;;;17.80;99.90;;;;;;5095822;28;19920;-77
2021/06/14 05:47:41;;;;;;;;;;;17.80;99.90;;;;;;5094899;28;20371;-78
2021/06/14 05:50:09;;;;;;;;;;;17.80;99.90;;;;;;5095476;28;19930;-77
2021/06/14 05:52:35;;;;;;;;;;;17.80;99.90;;;;;;5095566;28;19936;-77
2021/06/14 05:55:02;;;;;;;;;;;17.80;99.90;;;;;;5095257;28;20355;-78
2021/06/14 05:57:29;;;;;;;;;;;17.70;99.90;;;;;;5095200;28;19920;-78
2021/06/14 05:59:56;;;;;;;;;;;17.70;99.90;;;;;;5095577;28;19931;-78
2021/06/14 06:02:24;;;;;;;;;;;17.70;99.90;;;;;;5095331;28;19919;-78
2021/06/14 06:04:51;;;;;;;;;;;17.60;99.90;;;;;;5095494;28;19920;-78
2021/06/14 06:07:18;;;;;;;;;;;17.70;99.90;;;;;;5095282;28;20366;-78
2021/06/14 06:09:45;;;;;;;;;;;17.70;99.90;;;;;;5095428;28;19930;-78
2021/06/14 06:12:12;;;;;;;;;;;17.70;99.90;;;;;;5095654;28;19923;-78
2021/06/14 06:14:38;;;;;;;;;;;17.70;99.90;;;;;;5095389;28;19920;-78
2021/06/14 06:17:06;;;;;;;;;;;17.80;99.90;;;;;;5095086;28;19924;-78
2021/06/14 06:19:34;;;;;;;;;;;17.70;99.90;;;;;;5095363;28;19928;-78
2021/06/14 06:22:01;;;;;;;;;;;17.70;99.90;;;;;;5095347;28;20318;-78
2021/06/14 06:24:28;;;;;;;;;;;17.70;99.90;;;;;;5095138;28;19946;-78
2021/06/14 06:26:55;;;;;;;;;;;17.70;99.90;;;;;;5095086;28;20336;-78
2021/06/14 06:29:21;;;;;;;;;;;17.70;99.90;;;;;;5095072;28;19934;-78
2021/06/14 06:31:48;;;;;;;;;;;17.70;99.90;;;;;;5095185;28;19920;-78
2021/06/14 06:34:15;;;;;;;;;;;17.70;99.90;;;;;;5095280;28;19942;-78
2021/06/14 06:36:44;;;;;;;6.85;2.15;;;17.70;99.90;;;;;;5094253;28;20425;-78
2021/06/14 06:39:10;;;;;;;;;;;17.70;99.90;;;;;;5095044;28;19934;-78
2021/06/14 06:41:37;;;;;;;;;;;17.60;99.90;;;;;;5095086;28;19934;-78
2021/06/14 06:44:04;;;;;;;;;;;17.50;99.90;;;;;;5094872;28;19924;-78
2021/06/14 06:46:31;;;;;;;;;;;17.60;99.90;;;;;;5094917;28;20260;-78
2021/06/14 06:48:58;;;;;;;;;;;17.60;99.90;;;;;;5094902;28;19924;-78
2021/06/14 06:51:25;;;;;;;;;;;17.60;99.90;;;;;;5094938;28;19928;-78
2021/06/14 06:54:10;;;;;;;;;;;17.60;99.90;;;;;;5095271;28;19987;-78
2021/06/14 06:56:37;;;;;;;;;;;17.60;99.90;;;;;;5094926;28;20252;-78
2021/06/14 06:59:04;;;;;;;;;;;17.50;99.90;;;;;;5094517;28;20351;-75
2021/06/14 07:01:31;;;;;;;;;;;17.50;99.90;;;;;;5098751;28;19924;-76
2021/06/14 07:03:58;;;;;;;;;;;17.50;99.90;;;;;;5098792;28;19924;-78
2021/06/14 07:06:25;;;;;;;;;;;17.40;99.90;;;;;;5098639;28;19928;-78
2021/06/14 07:08:55;;;;;;;;;;;17.40;99.90;;;;;;5098467;28;20274;-78
2021/06/14 07:11:22;;;;;;;;;;;17.40;99.90;;;;;;5098300;28;19981;-78
2021/06/14 07:13:49;;;;;;;;;;;17.30;99.90;;;;;;5098631;28;19924;-78
2021/06/14 07:16:16;;;;;;;;;;;17.30;99.90;;;;;;5098292;28;20362;-76
2021/06/14 07:18:43;;;;;;;;;;;17.20;99.90;;;;;;5098089;28;19939;-76
2021/06/14 07:21:10;;;;;;;;;;;17.20;99.90;;;;;;5098347;28;19977;-78
2021/06/14 07:23:36;;;;;;;;;;;17.20;99.90;;;;;;5098143;28;20360;-77
2021/06/14 07:26:06;;;;;;;;;;;17.10;99.90;;;;;;5098108;28;19935;-78
2021/06/14 07:28:33;;;;;;;;;;;17.10;99.90;;;;;;5098044;28;19939;-78
2021/06/14 07:31:00;;;;;;;;;;;17.00;99.90;;;;;;5098243;28;19947;-78
2021/06/14 07:33:27;;;;;;;;;;;17.00;99.90;;;;;;5098015;28;19924;-76
2021/06/14 07:35:54;;;;;;;;;;;17.00;99.90;;;;;;5098273;28;19924;-78
2021/06/14 07:38:21;;;;;;;;;;;16.90;99.90;;;;;;5097705;28;19924;-78
2021/06/14 07:40:47;;;;;;;;;;;16.90;99.90;;;;;;5097927;28;19924;-78
2021/06/14 07:43:16;;;;;;;;;;;16.90;99.90;;;;;;5098101;28;20019;-78
2021/06/14 07:45:42;;;;;;;;;;;16.90;99.90;;;;;;5097817;28;19936;-78
2021/06/14 07:48:09;;;;;;;;;;;16.90;99.90;;;;;;5097975;28;19928;-78
2021/06/14 07:50:36;;;;;;;;;;;16.80;99.90;;;;;;5097739;28;19924;-78
2021/06/14 07:53:03;;;;;;;;;;;16.80;99.90;;;;;;5097628;28;19924;-78
2021/06/14 07:55:30;;;;;;;;;;;16.70;99.90;;;;;;5097621;28;19939;-78
2021/06/14 07:57:57;;;;;;;;;;;16.70;99.90;;;;;;5097758;28;19923;-78
2021/06/14 08:00:25;;;;;;;;;;;16.70;99.90;;;;;;5097474;28;19924;-78
2021/06/14 08:02:52;;;;;;;;;;;16.70;99.90;;;;;;5080121;28;19972;-78
2021/06/14 08:05:19;;;;;;;;;;;16.70;99.90;;;;;;5097311;28;20336;-78
2021/06/14 08:07:46;;;;;;;;;;;16.60;99.90;;;;;;5097249;28;19924;-79
2021/06/14 08:10:15;;;;;;;;;;;16.60;99.90;;;;;;5097240;28;20344;-79
2021/06/14 08:12:44;;;;;;;;;;;16.50;99.90;;;;;;5097372;28;19935;-76
2021/06/14 08:15:11;;;;;;;;;;;16.40;99.90;;;;;;5097149;28;19935;-76
2021/06/14 08:17:40;;;;;;;;;;;16.30;99.90;;;;;;5097010;28;20348;-76
2021/06/14 08:20:10;;;;;;;;;;;16.30;99.90;;;;;;5097335;28;19935;-77
2021/06/14 08:25:18;;;;;;;;;;;16.20;99.90;;;;;;5052933;28;19920;-76
2021/06/14 08:27:45;;;;;;;;;;;16.30;99.90;;;;;;5096999;28;19931;-79
2021/06/14 08:30:13;;;;;;;;;;;16.40;99.90;;;;;;5096895;28;19935;-79
2021/06/14 08:32:41;;;;;;;;;;;16.50;99.90;;;;;;5096776;28;20340;-78
2021/06/14 08:35:08;;;;;;;;;;;16.60;99.90;;;;;;5097053;28;19935;-78
2021/06/14 08:37:35;;;;;;;;;;;16.70;99.90;;;;;;5096696;28;20341;-78
2021/06/14 08:40:02;;;;;;;;;;;16.80;99.90;;;;;;5097070;28;19924;-76
2021/06/14 08:42:29;;;;;;;;;;;16.80;99.90;;;;;;5096878;28;19930;-78
2021/06/14 08:44:56;;;;;;;;;;;16.80;99.90;;;;;;5096694;28;19924;-78
2021/06/14 08:47:23;;;;;;;;;;;16.80;99.90;;;;;;5096547;28;20344;-78
2021/06/14 08:49:51;;;;;;;;;;;16.80;99.90;;;;;;5096531;28;19938;-78
2021/06/14 08:52:18;;;;;;;;;;;16.70;99.90;;;;;;5096807;28;19924;-78
2021/06/14 08:54:45;;;;;;;;;;;16.60;99.90;;;;;;5096474;28;20252;-78
2021/06/14 08:57:13;;;;;;;;;;;16.60;99.90;;;;;;5096436;28;19997;-78
2021/06/14 08:59:40;;;;;;;;;;;16.60;99.90;;;;;;5096436;28;20470;-79
2021/06/14 09:02:06;;;;;;;;;;;16.60;99.90;;;;;;5096312;28;20348;-78
2021/06/14 09:04:33;;;;;;;;;;;16.60;99.90;;;;;;5096246;28;19928;-79
2021/06/14 09:07:02;;;;;;;;;;;16.60;99.90;;;;;;5096504;28;19932;-79
2021/06/14 09:09:29;;;;;;;;;;;16.50;99.90;;;;;;5096069;28;19924;-78
2021/06/14 09:11:56;;;;;;;;;;;16.50;99.90;;;;;;5096392;28;19924;-79
2021/06/14 09:14:23;;;;;;;;;;;16.60;99.90;;;;;;5095984;28;20345;-76
2021/06/14 09:16:51;;;;;;;;;;;16.50;99.90;;;;;;5095935;28;19924;-76
2021/06/14 09:19:24;;;;;;;;;;;16.50;99.90;;;;;;5095927;28;19935;-78
2021/06/14 09:21:55;;;;;;;;;;;16.50;99.90;;;;;;5095293;28;19931;-78
2021/06/14 09:24:23;;;;;;;;;;;16.50;99.90;;;;;;5095710;28;19924;-78
2021/06/14 09:26:50;;;;;;;;;;;16.50;99.90;;;;;;5095935;28;19924;-78
2021/06/14 09:29:20;;;;;;;;;;;16.60;99.90;;;;;;5095838;28;19931;-78
2021/06/14 09:31:47;;;;;;;;;;;16.60;99.90;;;;;;5095853;28;19924;-78
2021/06/14 09:34:14;;;;;;;;;;;16.70;99.90;;;;;;5095966;28;19924;-78
2021/06/14 09:36:41;;;;;;;;;;;16.80;99.90;;;;;;5095692;28;19924;-78
2021/06/14 09:39:09;;;;;;;;;;;17.00;99.90;;;;;;5095940;28;19924;-78
2021/06/14 09:41:41;;;;;;;;;;;16.90;99.90;;;;;;5095251;28;19924;-78
2021/06/14 09:44:08;;;;;;;;;;;16.90;99.90;;;;;;5095840;28;19936;-78
2021/06/14 09:46:36;;;;;;;;;;;16.80;99.90;;;;;;5095810;28;19924;-78
2021/06/14 09:49:04;;;;;;;;;;;16.90;99.90;;;;;;5095552;28;19925;-78
2021/06/14 09:51:31;;;;;;;;;;;16.90;99.90;;;;;;5095712;28;20313;-78
2021/06/14 09:53:58;;;;;;;;;;;16.90;99.90;;;;;;5095476;28;19989;-79
2021/06/14 09:56:26;;;;;;;;;;;16.80;99.90;;;;;;5095578;28;19928;-78
2021/06/14 09:58:54;;;;;;;;;;;16.70;99.90;;;;;;5095315;28;19973;-77
2021/06/14 10:01:25;;;;;;;;;;;16.60;99.90;;;;;;5095324;28;20340;-77
2021/06/14 10:03:52;;;;;;;;;;;16.70;99.90;;;;;;5095436;28;19923;-78
2021/06/14 10:06:27;;;;;;;;;;;16.80;99.90;;;;;;5095478;28;19942;-78
2021/06/14 10:08:54;;;;;;;;;;;17.00;99.90;;;;;;5095264;28;20346;-79
2021/06/14 10:11:21;;;;;;;;;;;17.20;99.90;;;;;;5095172;28;19924;-79
2021/06/14 10:13:48;;;;;;;;;;;17.30;99.90;;;;;;5095627;28;19935;-79
2021/06/14 10:16:17;;;;;;;;;;;17.50;99.90;;;;;;5095443;28;19924;-79
2021/06/14 10:18:44;;;;;;;;;;;17.60;99.90;;;;;;5095013;28;20481;-78
2021/06/14 10:21:12;;;;;;;;;;;17.70;99.90;;;;;;5095141;28;20328;-79
2021/06/14 10:23:40;;;;;;;;;;;17.70;99.90;;;;;;5095322;28;20351;-79
2021/06/14 10:26:07;;;;;;;;;;;17.80;99.90;;;;;;5095149;28;19920;-78
2021/06/14 10:28:33;;;;;;;;;;;17.80;99.90;;;;;;5095515;28;19924;-79
2021/06/14 10:31:00;;;;;;;;;;;17.90;99.90;;;;;;5095348;28;19920;-79
2021/06/14 10:33:29;;;;;;;;;;;18.10;99.90;;;;;;5095629;28;19931;-79
2021/06/14 10:35:56;;;;;;;;;;;18.10;99.90;;;;;;5099006;28;19920;-78
2021/06/14 10:38:23;;;;;;;;;;;17.90;99.90;;;;;;5098881;28;19924;-79
2021/06/14 10:40:50;;;;;;;;;;;17.80;99.90;;;;;;5099562;28;19931;-79
2021/06/14 10:43:17;;;;;;;;;;;17.80;99.90;;;;;;5099294;28;19930;-79
2021/06/14 10:45:44;;;;;;;;;;;17.90;99.90;;;;;;5099017;28;19928;-79
2021/06/14 10:48:11;;;;;;;;;;;18.00;99.90;;;;;;5099111;28;20343;-78
2021/06/14 10:50:39;;;;;;;;;;;18.30;99.90;;;;;;5098705;28;20387;-78
2021/06/14 10:53:06;;;;;;;;;;;18.60;99.90;;;;;;5098760;28;19931;-78
2021/06/14 10:55:33;;;;;;;;;;;18.80;99.90;;;;;;5098971;28;19942;-78
2021/06/14 10:58:03;;;;;;;;;;;19.00;99.90;;;;;;5098695;28;20252;-78
2021/06/14 11:00:30;;;;;;;;;;;19.10;99.90;;;;;;5098578;28;19931;-78
2021/06/14 11:02:57;;;;;;;;;;;19.20;99.90;;;;;;5098680;28;20259;-78
2021/06/14 11:05:28;;;;;;;;;;;19.30;99.90;;;;;;5098311;28;20263;-78
2021/06/14 11:07:56;;;;;;;;;;;19.30;99.90;;;;;;5097864;28;20358;-78
2021/06/14 11:10:24;;;;;;;;;;;19.20;99.90;;;;;;5098416;28;19931;-78
2021/06/14 11:12:51;;;;;;;;;;;19.20;99.90;;;;;;5098873;28;19920;-78
2021/06/14 11:15:18;;;;;;;;;;;19.20;99.90;;;;;;5098465;28;20339;-78
2021/06/14 11:17:45;;;;;;;;;;;19.10;99.90;;;;;;5098331;28;20362;-78
2021/06/14 11:20:13;;;;;;;;;;;19.20;99.90;;;;;;5098494;28;19920;-78
2021/06/14 11:22:40;;;;;;;;;;;19.30;99.90;;;;;;5098228;28;19927;-79
2021/06/14 11:25:18;;;;;;;;;;;19.40;99.90;;;;;;5098272;28;19927;-78
2021/06/14 11:27:45;;;;;;;;;;;19.20;99.90;;;;;;5098249;28;19920;-78
2021/06/14 11:30:13;;;;;;;;;;;19.10;99.90;;;;;;5098206;28;19920;-78
2021/06/14 11:32:40;;;;;;;;;;;19.10;99.90;;;;;;5098102;28;19977;-78
2021/06/14 11:35:07;;;;;;;;;;;18.90;99.90;;;;;;5098110;28;20327;-78
2021/06/14 11:37:37;;;;;;;;;;;18.80;99.90;;;;;;5098375;28;19935;-78
2021/06/14 11:40:04;;;;;;;;;;;18.80;99.90;;;;;;5098002;28;19934;-78
2021/06/14 11:42:42;;;;;;;;;;;18.80;99.90;;;;;;5098236;28;19920;-78
2021/06/14 11:45:09;;;;;;;;;;;18.90;99.90;;;;;;5097048;28;20343;-77
2021/06/14 11:47:39;;;;;;;;;;;19.10;99.90;;;;;;5099620;28;19919;-78
2021/06/14 11:50:10;;;;;;;;;;;19.20;99.90;;;;;;5098103;28;19920;-82
2021/06/14 11:52:37;;;;;;;;;;;19.30;99.90;;;;;;5097720;28;20336;-80
2021/06/14 11:55:10;;;;;;;;;;;19.20;99.90;;;;;;5097726;28;20294;-79
2021/06/14 11:57:39;;;;;;;;;;;19.10;99.90;;;;;;5099150;28;19963;-81
2021/06/14 12:00:06;;;;;;;;;;;19.10;99.90;;;;;;5101337;28;19930;-86
2021/06/14 12:02:33;;;;;;;;;;;19.10;99.90;;;;;;5099305;28;20248;-82
2021/06/14 12:05:01;;;;;;;;;;;19.10;99.90;;;;;;5097414;28;19920;-81
2021/06/14 12:07:28;;;;;;;;;;;19.00;99.90;;;;;;5097475;28;19920;-82
2021/06/14 12:09:55;;;;;;;;;;;19.00;99.90;;;;;;5097708;28;19931;-82
2021/06/14 12:12:22;;;;;;;;;;;18.90;99.90;;;;;;5097487;28;19924;-82
2021/06/14 12:14:54;;;;;;;;;;;18.90;99.90;;;;;;5097421;28;19927;-82
2021/06/14 12:17:24;;;;;;;;;;;18.90;99.90;;;;;;5096548;28;20375;-82
2021/06/14 12:19:51;;;;;;;;;;;18.90;99.90;;;;;;5086098;28;19920;-82
2021/06/14 12:22:19;;;;;;;;;;;19.10;99.60;;;;;;5087677;28;19920;-82
2021/06/14 12:24:46;;;;;;;;;;;19.00;99.70;;;;;;5086208;28;19926;-83
2021/06/14 12:27:12;;;;;;;;;;;19.00;99.40;;;;;;5085575;28;19930;-82
2021/06/14 12:29:39;;;;;;;;;;;19.10;98.90;;;;;;5088042;28;20234;-82
2021/06/14 12:32:09;;;;;;;;;;;19.10;98.20;;;;;;5090572;28;19920;-82
2021/06/14 12:34:37;;;;;;;;;;;19.00;96.70;;;;;;5085679;28;19920;-82
2021/06/14 12:37:07;;;;;;;;;;;19.00;96.40;;;;;;5085891;28;20451;-82
2021/06/14 12:39:34;;;;;;;;;;;18.90;98.70;;;;;;5093773;28;19930;-82
2021/06/14 12:42:00;;;;;;;;;;;19.00;98.80;;;;;;5075800;28;20340;-82
2021/06/14 12:44:27;;;;;;;;;;;19.00;96.90;;;;;;5076069;28;19943;-82
2021/06/14 12:46:54;;;;;;;;;;;19.10;96.80;;;;;;5076117;28;19924;-82
2021/06/14 12:49:23;;;;;;;;;;;19.10;93.80;;;;;;5075786;28;19920;-83
2021/06/14 12:51:50;;;;;;;;;;;19.10;96.90;;;;;;5075998;28;20272;-82
2021/06/14 12:54:17;;;;;;;;;;;19.10;97.40;;;;;;5076417;28;19930;-82
2021/06/14 12:56:49;;;;;;;;;;;19.20;96.00;;;;;;5076332;28;19930;-82
2021/06/14 12:59:16;;;;;;;;;;;19.30;95.80;;;;;;5075973;28;19939;-81
2021/06/14 13:01:43;;;;;;;;;;;19.40;96.90;;;;;;5076131;28;19931;-82
2021/06/14 13:04:10;;;;;;;6.40;0.90;;;19.40;94.70;;;;;;5074948;28;20430;-82
2021/06/14 13:06:41;;;;;;;1.17;0.35;;;19.30;95.70;;;;;;5075807;28;20048;-82
2021/06/14 13:09:08;;;;;;;3.05;0.57;;;19.30;94.50;;;;;;5075753;28;20051;-82
2021/06/14 13:11:42;;;;;;;;;;;19.40;94.30;;;;;;5076044;28;20118;-82
2021/06/14 13:14:09;;;;;;;;;;;19.40;91.90;;;;;;5075803;28;19924;-82
2021/06/14 13:16:48;;;;;;;;;;;19.30;94.90;;;;;;5075897;28;19920;-82
2021/06/14 13:19:15;;;;;;;;;;;19.30;96.00;;;;;;5075919;28;19978;-81
2021/06/14 13:21:43;;;;;;;;;;;19.40;96.20;;;;;;5075737;28;19930;-82
2021/06/14 13:24:11;;;;;;;;;;;19.30;96.90;;;;;;5075890;28;19935;-82
2021/06/14 13:26:39;;;;;;;;;;;19.30;96.10;;;;;;5075784;28;19931;-82
2021/06/14 13:29:11;;;;;;;;;;;19.30;97.80;;;;;;5075517;28;19921;-85
2021/06/14 13:31:40;;;;;;;;;;;19.30;96.80;;;;;;5075555;28;20370;-82
2021/06/14 13:34:10;;;;;;;;;;;19.20;96.00;;;;;;5075865;28;20244;-82
2021/06/14 13:36:37;;;;;;;;;;;19.30;96.70;;;;;;5075450;28;20252;-81
2021/06/14 13:39:06;;;;;;;;;;;19.30;97.30;;;;;;5075486;28;20271;-82
2021/06/14 13:41:33;;;;;;;;;;;19.30;95.40;;;;;;5075353;28;19921;-82
2021/06/14 13:44:07;;;;;;;;;;;19.20;93.70;;;;;;5075363;28;20341;-82
2021/06/14 13:46:41;;;;;;;;;;;19.10;91.60;;;;;;5075624;28;19935;-82
2021/06/14 13:49:07;;;;;;;;;;;19.00;94.60;;;;;;5075324;28;20340;-83
2021/06/14 13:51:34;;;;;;;;;;;19.00;95.50;;;;;;5075332;28;20008;-82
2021/06/14 13:54:01;;;;;;;;;;;19.00;92.70;;;;;;5075282;28;19920;-82
2021/06/14 13:56:30;;;;;;;;;;;19.00;96.30;;;;;;5075519;28;19928;-82
2021/06/14 13:58:56;;;;;;;;;;;18.90;92.30;;;;;;5074704;28;20317;-81
2021/06/14 14:01:26;;;;;;;;;;;18.80;96.10;;;;;;5075116;28;19920;-81
2021/06/14 14:03:59;;;;;;;;;;;18.80;96.90;;;;;;5075301;28;19921;-81
2021/06/14 14:06:26;;;;;;;;;;;18.90;96.50;;;;;;5075039;28;19921;-82
2021/06/14 14:08:54;;;;;;;;;;;18.80;94.90;;;;;;5074666;28;19927;-82
2021/06/14 14:11:21;;;;;;;;;;;18.70;95.90;;;;;;5075296;28;20011;-82
2021/06/14 14:13:57;;;;;;;;;;;18.70;97.10;;;;;;5075319;28;19938;-82
2021/06/14 14:16:23;;;;;;;;;;;18.60;97.20;;;;;;5075045;28;20344;-82
2021/06/14 14:18:50;;;;;;;;;;;18.50;97.40;;;;;;5074982;28;19931;-81